sensor_id;sensor_type;location;lat;lon;timestamp;P1;durP1;ratioP1;P2;durP2;ratioP2
65063;SDS011;51654;51.452;6.644;2022-08-03T05:25:33;4.72;;;3.22;;
65063;SDS011;51654;51.452;6.644;2022-08-03T05:56:00;4.65;;;2.08;;
65063;SDS011;51654;51.452;6.644;2022-08-03T05:58:46;8.52;;;2.17;;
65063;SDS011;51654;51.452;6.644;2022-08-03T06:06:08;5.30;;;2.80;;
65063;SDS011;51654;51.452;6.644;2022-08-03T06:08:37;10.88;;;2.80;;
65063;SDS011;51654;51.452;6.644;2022-08-03T06:11:04;14.13;;;2.53;;
65063;SDS011;51654;51.452;6.644;2022-08-03T06:13:31;6.03;;;2.17;;
65063;SDS011;51654;51.452;6.644;2022-08-03T06:15:59;1.80;;;1.67;;
65063;SDS011;51654;51.452;6.644;2022-08-03T06:18:26;7.47;;;3.08;;
65063;SDS011;51654;51.452;6.644;2022-08-03T06:20:53;6.73;;;2.20;;
65063;SDS011;51654;51.452;6.644;2022-08-03T06:31:17;2.87;;;2.00;;
65063;SDS011;51654;51.452;6.644;2022-08-03T06:33:44;7.05;;;3.22;;
65063;SDS011;51654;51.452;6.644;2022-08-03T06:36:31;15.88;;;2.38;;
65063;SDS011;51654;51.452;6.644;2022-08-03T06:43:54;8.07;;;3.63;;
65063;SDS011;51654;51.452;6.644;2022-08-03T06:48:56;4.75;;;2.92;;
65063;SDS011;51654;51.452;6.644;2022-08-03T06:54:11;10.98;;;6.40;;
65063;SDS011;51654;51.452;6.644;2022-08-03T06:56:38;15.45;;;5.43;;
65063;SDS011;51654;51.452;6.644;2022-08-03T06:59:06;49.03;;;22.80;;
65063;SDS011;51654;51.452;6.644;2022-08-03T07:01:33;6.03;;;5.07;;
65063;SDS011;51654;51.452;6.644;2022-08-03T07:04:00;4.85;;;3.22;;
65063;SDS011;51654;51.452;6.644;2022-08-03T07:06:27;38.58;;;16.70;;
65063;SDS011;51654;51.452;6.644;2022-08-03T07:08:54;2.88;;;2.22;;
65063;SDS011;51654;51.452;6.644;2022-08-03T07:11:25;1.85;;;1.75;;
65063;SDS011;51654;51.452;6.644;2022-08-03T07:13:53;6.50;;;4.85;;
65063;SDS011;51654;51.452;6.644;2022-08-03T07:16:21;8.15;;;4.25;;
65063;SDS011;51654;51.452;6.644;2022-08-03T07:18:48;11.02;;;5.07;;
65063;SDS011;51654;51.452;6.644;2022-08-03T07:21:15;3.80;;;2.65;;
65063;SDS011;51654;51.452;6.644;2022-08-03T07:23:42;7.22;;;2.97;;
65063;SDS011;51654;51.452;6.644;2022-08-03T07:26:09;7.00;;;1.67;;
65063;SDS011;51654;51.452;6.644;2022-08-03T07:28:36;7.60;;;1.75;;
65063;SDS011;51654;51.452;6.644;2022-08-03T07:31:04;23.77;;;9.45;;
65063;SDS011;51654;51.452;6.644;2022-08-03T07:33:30;7.47;;;4.22;;
65063;SDS011;51654;51.452;6.644;2022-08-03T07:35:57;17.80;;;9.45;;
65063;SDS011;51654;51.452;6.644;2022-08-03T07:38:24;6.53;;;4.53;;
65063;SDS011;51654;51.452;6.644;2022-08-03T07:40:52;4.82;;;2.25;;
65063;SDS011;51654;51.452;6.644;2022-08-03T07:43:19;17.63;;;2.38;;
65063;SDS011;51654;51.452;6.644;2022-08-03T07:45:46;2.38;;;2.08;;
65063;SDS011;51654;51.452;6.644;2022-08-03T07:48:13;4.20;;;3.22;;
65063;SDS011;51654;51.452;6.644;2022-08-03T07:50:39;9.27;;;4.85;;
65063;SDS011;51654;51.452;6.644;2022-08-03T07:53:06;2.15;;;1.60;;
65063;SDS011;51654;51.452;6.644;2022-08-03T07:55:34;3.47;;;1.55;;
65063;SDS011;51654;51.452;6.644;2022-08-03T07:58:01;1.15;;;1.10;;
65063;SDS011;51654;51.452;6.644;2022-08-03T08:00:37;14.70;;;2.20;;
65063;SDS011;51654;51.452;6.644;2022-08-03T08:03:04;4.70;;;3.08;;
65063;SDS011;51654;51.452;6.644;2022-08-03T08:05:32;2.83;;;1.70;;
65063;SDS011;51654;51.452;6.644;2022-08-03T08:08:00;5.25;;;1.60;;
65063;SDS011;51654;51.452;6.644;2022-08-03T08:10:27;3.17;;;2.70;;
65063;SDS011;51654;51.452;6.644;2022-08-03T08:12:55;5.68;;;1.75;;
65063;SDS011;51654;51.452;6.644;2022-08-03T08:15:23;5.65;;;2.45;;
65063;SDS011;51654;51.452;6.644;2022-08-03T08:17:51;16.20;;;1.98;;
65063;SDS011;51654;51.452;6.644;2022-08-03T08:20:20;3.75;;;3.35;;
65063;SDS011;51654;51.452;6.644;2022-08-03T08:23:00;4.18;;;3.20;;
65063;SDS011;51654;51.452;6.644;2022-08-03T08:25:49;2.17;;;2.08;;
65063;SDS011;51654;51.452;6.644;2022-08-03T08:28:19;1.20;;;1.20;;
65063;SDS011;51654;51.452;6.644;2022-08-03T08:30:58;3.97;;;2.45;;
65063;SDS011;51654;51.452;6.644;2022-08-03T08:33:26;3.63;;;3.25;;
65063;SDS011;51654;51.452;6.644;2022-08-03T08:36:13;10.48;;;3.70;;
65063;SDS011;51654;51.452;6.644;2022-08-03T08:38:41;9.63;;;4.38;;
65063;SDS011;51654;51.452;6.644;2022-08-03T08:41:10;43.13;;;20.10;;
65063;SDS011;51654;51.452;6.644;2022-08-03T08:43:37;10.60;;;6.05;;
65063;SDS011;51654;51.452;6.644;2022-08-03T08:46:04;51.05;;;24.65;;
65063;SDS011;51654;51.452;6.644;2022-08-03T08:48:36;18.85;;;9.50;;
65063;SDS011;51654;51.452;6.644;2022-08-03T08:51:07;5.65;;;4.03;;
65063;SDS011;51654;51.452;6.644;2022-08-03T08:53:36;14.98;;;7.25;;
65063;SDS011;51654;51.452;6.644;2022-08-03T08:56:08;4.50;;;4.10;;
65063;SDS011;51654;51.452;6.644;2022-08-03T08:58:46;3.83;;;3.45;;
65063;SDS011;51654;51.452;6.644;2022-08-03T09:01:17;3.03;;;2.70;;
65063;SDS011;51654;51.452;6.644;2022-08-03T09:03:45;3.97;;;3.20;;
65063;SDS011;51654;51.452;6.644;2022-08-03T09:06:13;2.08;;;1.98;;
65063;SDS011;51654;51.452;6.644;2022-08-03T09:08:43;2.90;;;2.10;;
65063;SDS011;51654;51.452;6.644;2022-08-03T09:11:10;4.00;;;2.30;;
65063;SDS011;51654;51.452;6.644;2022-08-03T09:13:37;6.60;;;2.85;;
65063;SDS011;51654;51.452;6.644;2022-08-03T09:16:17;30.63;;;14.23;;
65063;SDS011;51654;51.452;6.644;2022-08-03T09:18:47;9.95;;;6.88;;
65063;SDS011;51654;51.452;6.644;2022-08-03T09:23:58;4.95;;;2.78;;
65063;SDS011;51654;51.452;6.644;2022-08-03T09:26:29;2.17;;;1.90;;
65063;SDS011;51654;51.452;6.644;2022-08-03T09:29:04;2.72;;;2.53;;
65063;SDS011;51654;51.452;6.644;2022-08-03T09:31:43;2.83;;;2.60;;
65063;SDS011;51654;51.452;6.644;2022-08-03T09:34:12;2.88;;;2.40;;
65063;SDS011;51654;51.452;6.644;2022-08-03T09:36:48;12.38;;;8.15;;
65063;SDS011;51654;51.452;6.644;2022-08-03T09:39:17;2.72;;;2.63;;
65063;SDS011;51654;51.452;6.644;2022-08-03T09:41:45;1.40;;;1.40;;
65063;SDS011;51654;51.452;6.644;2022-08-03T09:44:14;3.10;;;2.80;;
65063;SDS011;51654;51.452;6.644;2022-08-03T09:46:54;2.33;;;1.90;;
65063;SDS011;51654;51.452;6.644;2022-08-03T09:49:22;8.90;;;5.50;;
65063;SDS011;51654;51.452;6.644;2022-08-03T09:51:50;11.05;;;7.07;;
65063;SDS011;51654;51.452;6.644;2022-08-03T09:54:38;8.30;;;2.70;;
65063;SDS011;51654;51.452;6.644;2022-08-03T09:57:06;5.32;;;2.38;;
65063;SDS011;51654;51.452;6.644;2022-08-03T09:59:33;1.85;;;1.75;;
65063;SDS011;51654;51.452;6.644;2022-08-03T10:02:04;9.95;;;3.67;;
65063;SDS011;51654;51.452;6.644;2022-08-03T10:04:31;3.97;;;1.95;;
65063;SDS011;51654;51.452;6.644;2022-08-03T10:07:05;2.50;;;2.13;;
65063;SDS011;51654;51.452;6.644;2022-08-03T10:09:59;4.35;;;3.42;;
65063;SDS011;51654;51.452;6.644;2022-08-03T10:12:47;8.07;;;3.53;;
65063;SDS011;51654;51.452;6.644;2022-08-03T10:15:14;2.30;;;2.20;;
65063;SDS011;51654;51.452;6.644;2022-08-03T10:18:01;18.42;;;1.95;;
65063;SDS011;51654;51.452;6.644;2022-08-03T10:20:29;5.93;;;1.67;;
65063;SDS011;51654;51.452;6.644;2022-08-03T10:22:58;1.48;;;1.48;;
65063;SDS011;51654;51.452;6.644;2022-08-03T10:25:25;2.35;;;1.58;;
65063;SDS011;51654;51.452;6.644;2022-08-03T10:27:58;1.95;;;1.30;;
65063;SDS011;51654;51.452;6.644;2022-08-03T10:30:30;2.95;;;2.05;;
65063;SDS011;51654;51.452;6.644;2022-08-03T10:33:04;8.25;;;1.98;;
65063;SDS011;51654;51.452;6.644;2022-08-03T10:36:00;2.88;;;2.58;;
65063;SDS011;51654;51.452;6.644;2022-08-03T10:38:37;3.72;;;1.80;;
65063;SDS011;51654;51.452;6.644;2022-08-03T10:41:08;1.90;;;1.80;;
65063;SDS011;51654;51.452;6.644;2022-08-03T10:46:14;24.27;;;1.73;;
65063;SDS011;51654;51.452;6.644;2022-08-03T10:48:47;3.85;;;1.83;;
65063;SDS011;51654;51.452;6.644;2022-08-03T10:51:16;4.72;;;2.03;;
65063;SDS011;51654;51.452;6.644;2022-08-03T10:53:44;2.78;;;1.73;;
65063;SDS011;51654;51.452;6.644;2022-08-03T10:56:39;3.42;;;1.63;;
65063;SDS011;51654;51.452;6.644;2022-08-03T11:02:12;4.95;;;1.73;;
65063;SDS011;51654;51.452;6.644;2022-08-03T11:04:41;11.93;;;1.80;;
65063;SDS011;51654;51.452;6.644;2022-08-03T11:09:51;3.53;;;1.88;;
65063;SDS011;51654;51.452;6.644;2022-08-03T11:12:26;2.15;;;1.17;;
65063;SDS011;51654;51.452;6.644;2022-08-03T11:15:01;1.33;;;1.20;;
65063;SDS011;51654;51.452;6.644;2022-08-03T11:17:30;13.02;;;2.30;;
65063;SDS011;51654;51.452;6.644;2022-08-03T11:20:12;3.05;;;1.60;;
65063;SDS011;51654;51.452;6.644;2022-08-03T11:22:48;3.42;;;2.10;;
65063;SDS011;51654;51.452;6.644;2022-08-03T11:25:20;2.50;;;1.65;;
65063;SDS011;51654;51.452;6.644;2022-08-03T11:28:25;4.38;;;1.42;;
65063;SDS011;51654;51.452;6.644;2022-08-03T11:30:54;2.50;;;1.13;;
65063;SDS011;51654;51.452;6.644;2022-08-03T11:33:28;2.05;;;1.58;;
65063;SDS011;51654;51.452;6.644;2022-08-03T11:35:57;9.18;;;1.60;;
65063;SDS011;51654;51.452;6.644;2022-08-03T11:38:25;7.82;;;4.75;;
65063;SDS011;51654;51.452;6.644;2022-08-03T11:40:53;34.97;;;16.38;;
65063;SDS011;51654;51.452;6.644;2022-08-03T11:45:57;160.85;;;76.32;;
65063;SDS011;51654;51.452;6.644;2022-08-03T11:48:35;13.05;;;7.45;;
65063;SDS011;51654;51.452;6.644;2022-08-03T11:51:05;18.20;;;9.57;;
65063;SDS011;51654;51.452;6.644;2022-08-03T11:53:33;17.85;;;6.53;;
65063;SDS011;51654;51.452;6.644;2022-08-03T11:56:07;36.35;;;18.40;;
65063;SDS011;51654;51.452;6.644;2022-08-03T11:58:45;16.67;;;8.43;;
65063;SDS011;51654;51.452;6.644;2022-08-03T12:01:33;18.73;;;10.02;;
65063;SDS011;51654;51.452;6.644;2022-08-03T12:04:04;8.95;;;3.00;;
65063;SDS011;51654;51.452;6.644;2022-08-03T12:06:31;14.20;;;6.75;;
65063;SDS011;51654;51.452;6.644;2022-08-03T12:09:18;29.45;;;12.48;;
65063;SDS011;51654;51.452;6.644;2022-08-03T12:11:49;21.30;;;11.70;;
65063;SDS011;51654;51.452;6.644;2022-08-03T12:14:26;9.85;;;6.18;;
65063;SDS011;51654;51.452;6.644;2022-08-03T12:17:14;13.48;;;6.40;;
65063;SDS011;51654;51.452;6.644;2022-08-03T12:19:42;10.32;;;4.90;;
65063;SDS011;51654;51.452;6.644;2022-08-03T12:22:09;23.42;;;11.00;;
65063;SDS011;51654;51.452;6.644;2022-08-03T12:24:40;13.85;;;5.85;;
65063;SDS011;51654;51.452;6.644;2022-08-03T12:27:21;18.20;;;9.57;;
65063;SDS011;51654;51.452;6.644;2022-08-03T12:29:55;3.55;;;3.25;;
65063;SDS011;51654;51.452;6.644;2022-08-03T12:32:25;30.42;;;14.27;;
65063;SDS011;51654;51.452;6.644;2022-08-03T12:34:52;5.30;;;4.45;;
65063;SDS011;51654;51.452;6.644;2022-08-03T12:37:21;7.72;;;4.30;;
65063;SDS011;51654;51.452;6.644;2022-08-03T12:39:52;4.28;;;2.47;;
65063;SDS011;51654;51.452;6.644;2022-08-03T12:42:29;12.30;;;8.00;;
65063;SDS011;51654;51.452;6.644;2022-08-03T12:45:19;2.80;;;2.60;;
65063;SDS011;51654;51.452;6.644;2022-08-03T12:47:51;2.80;;;1.98;;
65063;SDS011;51654;51.452;6.644;2022-08-03T12:50:24;14.10;;;7.07;;
65063;SDS011;51654;51.452;6.644;2022-08-03T12:52:51;4.32;;;2.10;;
65063;SDS011;51654;51.452;6.644;2022-08-03T12:55:19;9.25;;;4.68;;
65063;SDS011;51654;51.452;6.644;2022-08-03T12:57:47;8.07;;;5.00;;
65063;SDS011;51654;51.452;6.644;2022-08-03T13:00:18;8.00;;;2.85;;
65063;SDS011;51654;51.452;6.644;2022-08-03T13:03:07;3.65;;;2.10;;
65063;SDS011;51654;51.452;6.644;2022-08-03T13:05:54;8.55;;;6.00;;
65063;SDS011;51654;51.452;6.644;2022-08-03T13:08:23;4.80;;;2.80;;
65063;SDS011;51654;51.452;6.644;2022-08-03T13:10:50;5.50;;;3.55;;
65063;SDS011;51654;51.452;6.644;2022-08-03T13:13:17;1.83;;;1.73;;
65063;SDS011;51654;51.452;6.644;2022-08-03T13:16:02;2.55;;;2.15;;
65063;SDS011;51654;51.452;6.644;2022-08-03T13:18:29;1.75;;;1.45;;
65063;SDS011;51654;51.452;6.644;2022-08-03T13:20:58;1.70;;;1.60;;
65063;SDS011;51654;51.452;6.644;2022-08-03T13:23:25;3.78;;;2.90;;
65063;SDS011;51654;51.452;6.644;2022-08-03T13:25:52;2.55;;;2.35;;
65063;SDS011;51654;51.452;6.644;2022-08-03T13:28:21;6.63;;;1.60;;
65063;SDS011;51654;51.452;6.644;2022-08-03T13:30:48;6.82;;;2.70;;
65063;SDS011;51654;51.452;6.644;2022-08-03T13:33:16;2.65;;;1.20;;
65063;SDS011;51654;51.452;6.644;2022-08-03T13:35:43;3.65;;;2.45;;
65063;SDS011;51654;51.452;6.644;2022-08-03T13:40:36;3.53;;;1.83;;
65063;SDS011;51654;51.452;6.644;2022-08-03T13:50:27;1.23;;;1.10;;
65063;SDS011;51654;51.452;6.644;2022-08-03T13:52:56;2.33;;;2.13;;
65063;SDS011;51654;51.452;6.644;2022-08-03T14:00:32;1.52;;;1.42;;
65063;SDS011;51654;51.452;6.644;2022-08-03T14:03:00;1.00;;;1.00;;
65063;SDS011;51654;51.452;6.644;2022-08-03T14:05:38;6.03;;;2.05;;
65063;SDS011;51654;51.452;6.644;2022-08-03T14:08:05;0.95;;;0.95;;
65063;SDS011;51654;51.452;6.644;2022-08-03T14:10:37;1.23;;;1.23;;
65063;SDS011;51654;51.452;6.644;2022-08-03T14:13:06;1.17;;;1.17;;
65063;SDS011;51654;51.452;6.644;2022-08-03T14:15:33;6.13;;;2.03;;
65063;SDS011;51654;51.452;6.644;2022-08-03T14:18:04;1.52;;;1.42;;
65063;SDS011;51654;51.452;6.644;2022-08-03T14:20:41;2.03;;;1.67;;
65063;SDS011;51654;51.452;6.644;2022-08-03T14:23:16;9.15;;;1.80;;
65063;SDS011;51654;51.452;6.644;2022-08-03T14:25:44;1.73;;;1.63;;
65063;SDS011;51654;51.452;6.644;2022-08-03T14:28:19;1.45;;;1.35;;
65063;SDS011;51654;51.452;6.644;2022-08-03T14:30:49;1.33;;;1.23;;
65063;SDS011;51654;51.452;6.644;2022-08-03T14:33:17;6.85;;;2.28;;
65063;SDS011;51654;51.452;6.644;2022-08-03T14:35:44;6.05;;;1.52;;
65063;SDS011;51654;51.452;6.644;2022-08-03T14:38:11;1.95;;;1.42;;
65063;SDS011;51654;51.452;6.644;2022-08-03T14:40:39;1.23;;;1.23;;
65063;SDS011;51654;51.452;6.644;2022-08-03T14:43:07;8.15;;;1.65;;
65063;SDS011;51654;51.452;6.644;2022-08-03T14:45:34;1.65;;;1.55;;
65063;SDS011;51654;51.452;6.644;2022-08-03T14:48:01;7.80;;;1.70;;
65063;SDS011;51654;51.452;6.644;2022-08-03T14:50:50;6.93;;;1.42;;
65063;SDS011;51654;51.452;6.644;2022-08-03T14:53:18;1.00;;;1.00;;
65063;SDS011;51654;51.452;6.644;2022-08-03T14:55:45;1.73;;;1.65;;
65063;SDS011;51654;51.452;6.644;2022-08-03T14:58:17;1.27;;;1.27;;
65063;SDS011;51654;51.452;6.644;2022-08-03T15:00:47;1.90;;;1.80;;
65063;SDS011;51654;51.452;6.644;2022-08-03T15:03:15;6.47;;;1.60;;
65063;SDS011;51654;51.452;6.644;2022-08-03T15:05:45;4.00;;;1.70;;
65063;SDS011;51654;51.452;6.644;2022-08-03T15:08:12;4.15;;;1.75;;
65063;SDS011;51654;51.452;6.644;2022-08-03T15:10:39;6.93;;;1.95;;
65063;SDS011;51654;51.452;6.644;2022-08-03T15:13:14;3.60;;;1.88;;
65063;SDS011;51654;51.452;6.644;2022-08-03T15:15:42;3.70;;;1.40;;
65063;SDS011;51654;51.452;6.644;2022-08-03T15:18:09;5.47;;;2.00;;
65063;SDS011;51654;51.452;6.644;2022-08-03T15:20:36;5.57;;;1.35;;
65063;SDS011;51654;51.452;6.644;2022-08-03T15:23:13;1.20;;;1.20;;
65063;SDS011;51654;51.452;6.644;2022-08-03T15:25:42;1.27;;;1.15;;
65063;SDS011;51654;51.452;6.644;2022-08-03T15:28:29;6.15;;;1.40;;
65063;SDS011;51654;51.452;6.644;2022-08-03T15:30:57;4.57;;;1.55;;
65063;SDS011;51654;51.452;6.644;2022-08-03T15:33:24;15.52;;;1.65;;
65063;SDS011;51654;51.452;6.644;2022-08-03T15:35:51;3.15;;;1.50;;
65063;SDS011;51654;51.452;6.644;2022-08-03T15:38:18;22.33;;;2.00;;
65063;SDS011;51654;51.452;6.644;2022-08-03T15:40:51;2.00;;;1.85;;
65063;SDS011;51654;51.452;6.644;2022-08-03T15:43:22;5.75;;;1.83;;
65063;SDS011;51654;51.452;6.644;2022-08-03T15:45:52;2.42;;;1.33;;
65063;SDS011;51654;51.452;6.644;2022-08-03T15:48:39;3.20;;;1.55;;
65063;SDS011;51654;51.452;6.644;2022-08-03T15:51:06;1.73;;;1.63;;
65063;SDS011;51654;51.452;6.644;2022-08-03T15:53:34;2.38;;;2.28;;
65063;SDS011;51654;51.452;6.644;2022-08-03T15:56:02;6.53;;;4.40;;
65063;SDS011;51654;51.452;6.644;2022-08-03T15:58:42;1.92;;;1.83;;
65063;SDS011;51654;51.452;6.644;2022-08-03T16:01:29;6.25;;;5.22;;
65063;SDS011;51654;51.452;6.644;2022-08-03T16:03:59;4.72;;;2.25;;
65063;SDS011;51654;51.452;6.644;2022-08-03T16:06:26;4.40;;;2.72;;
65063;SDS011;51654;51.452;6.644;2022-08-03T16:09:02;7.65;;;4.22;;
65063;SDS011;51654;51.452;6.644;2022-08-03T16:11:29;19.60;;;3.70;;
65063;SDS011;51654;51.452;6.644;2022-08-03T16:13:57;4.65;;;3.00;;
65063;SDS011;51654;51.452;6.644;2022-08-03T16:16:43;64.18;;;31.15;;
65063;SDS011;51654;51.452;6.644;2022-08-03T16:19:12;19.15;;;6.15;;
65063;SDS011;51654;51.452;6.644;2022-08-03T16:21:38;5.43;;;4.60;;
65063;SDS011;51654;51.452;6.644;2022-08-03T16:24:14;7.47;;;5.45;;
65063;SDS011;51654;51.452;6.644;2022-08-03T16:26:45;75.72;;;35.65;;
65063;SDS011;51654;51.452;6.644;2022-08-03T16:29:12;28.83;;;14.25;;
65063;SDS011;51654;51.452;6.644;2022-08-03T16:31:48;30.75;;;14.40;;
65063;SDS011;51654;51.452;6.644;2022-08-03T16:34:17;11.48;;;3.00;;
65063;SDS011;51654;51.452;6.644;2022-08-03T16:36:45;36.70;;;18.00;;
65063;SDS011;51654;51.452;6.644;2022-08-03T16:39:12;45.33;;;22.30;;
65063;SDS011;51654;51.452;6.644;2022-08-03T16:41:39;35.42;;;16.10;;
65063;SDS011;51654;51.452;6.644;2022-08-03T16:44:29;10.55;;;6.22;;
65063;SDS011;51654;51.452;6.644;2022-08-03T16:46:56;40.35;;;18.25;;
65063;SDS011;51654;51.452;6.644;2022-08-03T16:49:27;52.67;;;22.33;;
65063;SDS011;51654;51.452;6.644;2022-08-03T16:52:15;20.05;;;11.40;;
65063;SDS011;51654;51.452;6.644;2022-08-03T16:54:43;65.00;;;26.60;;
65063;SDS011;51654;51.452;6.644;2022-08-03T16:57:18;39.08;;;17.35;;
65063;SDS011;51654;51.452;6.644;2022-08-03T17:00:06;13.77;;;9.35;;
65063;SDS011;51654;51.452;6.644;2022-08-03T17:02:34;34.53;;;12.63;;
65063;SDS011;51654;51.452;6.644;2022-08-03T17:05:03;70.68;;;34.45;;
65063;SDS011;51654;51.452;6.644;2022-08-03T17:07:31;88.43;;;39.85;;
65063;SDS011;51654;51.452;6.644;2022-08-03T17:09:58;30.75;;;14.55;;
65063;SDS011;51654;51.452;6.644;2022-08-03T17:12:26;64.43;;;24.88;;
65063;SDS011;51654;51.452;6.644;2022-08-03T17:14:55;168.82;;;79.13;;
65063;SDS011;51654;51.452;6.644;2022-08-03T17:17:24;176.57;;;83.57;;
65063;SDS011;51654;51.452;6.644;2022-08-03T17:20:06;30.10;;;17.27;;
65063;SDS011;51654;51.452;6.644;2022-08-03T17:22:39;8.13;;;5.85;;
65063;SDS011;51654;51.452;6.644;2022-08-03T17:25:15;17.60;;;6.05;;
65063;SDS011;51654;51.452;6.644;2022-08-03T17:28:05;23.35;;;6.65;;
65063;SDS011;51654;51.452;6.644;2022-08-03T17:30:52;50.50;;;23.35;;
65063;SDS011;51654;51.452;6.644;2022-08-03T17:33:58;148.15;;;67.18;;
65063;SDS011;51654;51.452;6.644;2022-08-03T17:36:27;167.32;;;81.25;;
65063;SDS011;51654;51.452;6.644;2022-08-03T17:39:17;101.80;;;45.28;;
65063;SDS011;51654;51.452;6.644;2022-08-03T17:42:05;53.50;;;27.45;;
65063;SDS011;51654;51.452;6.644;2022-08-03T17:44:56;54.85;;;25.92;;
65063;SDS011;51654;51.452;6.644;2022-08-03T17:47:29;15.13;;;9.68;;
65063;SDS011;51654;51.452;6.644;2022-08-03T17:50:11;8.38;;;3.28;;
65063;SDS011;51654;51.452;6.644;2022-08-03T17:52:53;6.38;;;2.60;;
65063;SDS011;51654;51.452;6.644;2022-08-03T17:55:56;2.65;;;2.45;;
65063;SDS011;51654;51.452;6.644;2022-08-03T17:58:35;9.40;;;2.67;;
65063;SDS011;51654;51.452;6.644;2022-08-03T18:01:06;8.68;;;4.85;;
65063;SDS011;51654;51.452;6.644;2022-08-03T18:04:15;8.38;;;2.17;;
65063;SDS011;51654;51.452;6.644;2022-08-03T18:06:56;5.43;;;3.10;;
65063;SDS011;51654;51.452;6.644;2022-08-03T18:09:25;12.32;;;3.25;;
65063;SDS011;51654;51.452;6.644;2022-08-03T18:12:17;3.72;;;2.80;;
65063;SDS011;51654;51.452;6.644;2022-08-03T18:14:58;4.95;;;3.97;;
65063;SDS011;51654;51.452;6.644;2022-08-03T18:17:33;14.60;;;3.28;;
65063;SDS011;51654;51.452;6.644;2022-08-03T18:20:23;5.75;;;4.85;;
65063;SDS011;51654;51.452;6.644;2022-08-03T18:23:06;3.95;;;3.65;;
65063;SDS011;51654;51.452;6.644;2022-08-03T18:25:35;9.98;;;5.78;;
65063;SDS011;51654;51.452;6.644;2022-08-03T18:36:07;5.95;;;3.53;;
65063;SDS011;51654;51.452;6.644;2022-08-03T18:38:43;3.83;;;3.22;;
65063;SDS011;51654;51.452;6.644;2022-08-03T18:41:11;12.05;;;6.80;;
65063;SDS011;51654;51.452;6.644;2022-08-03T18:43:50;8.70;;;4.47;;
65063;SDS011;51654;51.452;6.644;2022-08-03T18:49:40;6.15;;;2.65;;
65063;SDS011;51654;51.452;6.644;2022-08-03T18:55:16;2.70;;;2.55;;
65063;SDS011;51654;51.452;6.644;2022-08-03T19:00:27;12.95;;;3.13;;
65063;SDS011;51654;51.452;6.644;2022-08-03T19:03:20;6.72;;;4.75;;
65063;SDS011;51654;51.452;6.644;2022-08-03T19:05:53;6.95;;;5.55;;
65063;SDS011;51654;51.452;6.644;2022-08-03T19:11:03;7.22;;;5.07;;
65063;SDS011;51654;51.452;6.644;2022-08-03T19:21:17;11.65;;;2.83;;
65063;SDS011;51654;51.452;6.644;2022-08-03T19:23:44;11.38;;;2.00;;
65063;SDS011;51654;51.452;6.644;2022-08-03T19:26:14;11.70;;;5.43;;
65063;SDS011;51654;51.452;6.644;2022-08-03T19:28:57;17.65;;;6.93;;
65063;SDS011;51654;51.452;6.644;2022-08-03T19:31:24;11.68;;;6.20;;
65063;SDS011;51654;51.452;6.644;2022-08-03T19:33:58;6.82;;;3.92;;
65063;SDS011;51654;51.452;6.644;2022-08-03T19:36:26;15.95;;;3.05;;
65063;SDS011;51654;51.452;6.644;2022-08-03T19:38:54;9.65;;;3.78;;
65063;SDS011;51654;51.452;6.644;2022-08-03T19:41:23;6.60;;;3.05;;
65063;SDS011;51654;51.452;6.644;2022-08-03T19:43:57;24.77;;;10.88;;
65063;SDS011;51654;51.452;6.644;2022-08-03T19:46:30;13.57;;;6.72;;
65063;SDS011;51654;51.452;6.644;2022-08-03T19:49:10;39.10;;;15.13;;
65063;SDS011;51654;51.452;6.644;2022-08-03T19:51:42;13.80;;;8.85;;
65063;SDS011;51654;51.452;6.644;2022-08-03T19:54:33;6.43;;;4.95;;
65063;SDS011;51654;51.452;6.644;2022-08-03T19:57:21;4.97;;;3.20;;
65063;SDS011;51654;51.452;6.644;2022-08-03T19:59:50;10.98;;;4.00;;
65063;SDS011;51654;51.452;6.644;2022-08-03T20:02:18;4.70;;;4.00;;
65063;SDS011;51654;51.452;6.644;2022-08-03T20:10:13;8.57;;;3.13;;
65063;SDS011;51654;51.452;6.644;2022-08-03T20:12:45;9.82;;;5.18;;
65063;SDS011;51654;51.452;6.644;2022-08-03T20:15:16;8.25;;;5.85;;
65063;SDS011;51654;51.452;6.644;2022-08-03T20:17:57;7.10;;;3.20;;
65063;SDS011;51654;51.452;6.644;2022-08-03T21:08:55;2.13;;;1.98;;
65063;SDS011;51654;51.452;6.644;2022-08-03T21:11:36;1.92;;;1.92;;
65063;SDS011;51654;51.452;6.644;2022-08-03T21:14:09;8.52;;;5.88;;
65063;SDS011;51654;51.452;6.644;2022-08-03T21:16:44;4.85;;;2.60;;
65063;SDS011;51654;51.452;6.644;2022-08-03T21:19:15;26.50;;;3.53;;
65063;SDS011;51654;51.452;6.644;2022-08-03T21:21:43;5.75;;;2.53;;
65063;SDS011;51654;51.452;6.644;2022-08-03T21:24:12;7.82;;;2.65;;
65063;SDS011;51654;51.452;6.644;2022-08-03T21:26:40;4.57;;;3.67;;
65063;SDS011;51654;51.452;6.644;2022-08-03T21:29:11;6.22;;;3.40;;
65063;SDS011;51654;51.452;6.644;2022-08-03T21:31:39;2.45;;;2.35;;
65063;SDS011;51654;51.452;6.644;2022-08-03T21:34:06;11.25;;;4.65;;
65063;SDS011;51654;51.452;6.644;2022-08-03T21:36:34;10.52;;;4.88;;
65063;SDS011;51654;51.452;6.644;2022-08-03T21:39:03;9.13;;;2.85;;
65063;SDS011;51654;51.452;6.644;2022-08-03T21:41:33;4.28;;;2.00;;
65063;SDS011;51654;51.452;6.644;2022-08-03T21:44:02;6.90;;;3.83;;
65063;SDS011;51654;51.452;6.644;2022-08-03T21:46:34;25.05;;;3.83;;
65063;SDS011;51654;51.452;6.644;2022-08-03T21:49:03;26.55;;;4.65;;
65063;SDS011;51654;51.452;6.644;2022-08-03T21:51:53;6.82;;;3.35;;
65063;SDS011;51654;51.452;6.644;2022-08-03T21:54:29;6.45;;;1.92;;
65063;SDS011;51654;51.452;6.644;2022-08-03T21:57:05;7.88;;;2.47;;
65063;SDS011;51654;51.452;6.644;2022-08-03T21:59:38;3.47;;;2.65;;
65063;SDS011;51654;51.452;6.644;2022-08-03T22:02:17;10.80;;;3.35;;
65063;SDS011;51654;51.452;6.644;2022-08-03T22:04:49;5.38;;;1.75;;
65063;SDS011;51654;51.452;6.644;2022-08-03T22:09:53;3.22;;;2.15;;
65063;SDS011;51654;51.452;6.644;2022-08-03T22:12:21;8.13;;;1.92;;
65063;SDS011;51654;51.452;6.644;2022-08-03T22:14:50;245.85;;;109.13;;
65063;SDS011;51654;51.452;6.644;2022-08-03T22:17:26;245.60;;;114.97;;
65063;SDS011;51654;51.452;6.644;2022-08-03T22:20:15;652.78;;;342.52;;
65063;SDS011;51654;51.452;6.644;2022-08-03T22:22:43;460.35;;;248.43;;
65063;SDS011;51654;51.452;6.644;2022-08-03T22:25:22;383.38;;;200.95;;
65063;SDS011;51654;51.452;6.644;2022-08-03T22:27:52;314.98;;;153.15;;
65063;SDS011;51654;51.452;6.644;2022-08-03T22:30:20;303.35;;;138.43;;
65063;SDS011;51654;51.452;6.644;2022-08-03T22:32:48;352.98;;;165.30;;
65063;SDS011;51654;51.452;6.644;2022-08-03T22:35:18;295.33;;;141.18;;
65063;SDS011;51654;51.452;6.644;2022-08-03T22:37:49;63.08;;;35.70;;
65063;SDS011;51654;51.452;6.644;2022-08-03T22:40:19;133.05;;;58.45;;
65063;SDS011;51654;51.452;6.644;2022-08-03T22:42:46;67.20;;;29.17;;
65063;SDS011;51654;51.452;6.644;2022-08-03T22:45:17;97.93;;;45.47;;
65063;SDS011;51654;51.452;6.644;2022-08-03T22:48:05;123.25;;;51.58;;
65063;SDS011;51654;51.452;6.644;2022-08-03T22:50:33;120.45;;;53.00;;
65063;SDS011;51654;51.452;6.644;2022-08-03T22:53:01;90.68;;;39.20;;
65063;SDS011;51654;51.452;6.644;2022-08-03T22:55:28;87.15;;;36.58;;
65063;SDS011;51654;51.452;6.644;2022-08-03T22:57:55;88.30;;;41.10;;
65063;SDS011;51654;51.452;6.644;2022-08-03T23:00:22;23.67;;;12.88;;
65063;SDS011;51654;51.452;6.644;2022-08-03T23:02:50;39.25;;;18.20;;
65063;SDS011;51654;51.452;6.644;2022-08-03T23:05:22;43.10;;;22.42;;
65063;SDS011;51654;51.452;6.644;2022-08-03T23:08:11;37.83;;;17.77;;
65063;SDS011;51654;51.452;6.644;2022-08-03T23:10:40;48.83;;;17.42;;
65063;SDS011;51654;51.452;6.644;2022-08-03T23:13:13;23.85;;;13.32;;
65063;SDS011;51654;51.452;6.644;2022-08-03T23:15:42;17.45;;;7.80;;
65063;SDS011;51654;51.452;6.644;2022-08-03T23:18:20;22.40;;;10.10;;
65063;SDS011;51654;51.452;6.644;2022-08-03T23:20:49;18.95;;;7.25;;